sensor_id;sensor_type;location;lat;lon;timestamp;P1;durP1;ratioP1;P2;durP2;ratioP2
27839;SDS011;15207;42.182;24.308;2023-11-21T00:01:10;11.60;;;5.60;;
27839;SDS011;15207;42.182;24.308;2023-11-21T00:03:36;12.40;;;6.00;;
27839;SDS011;15207;42.182;24.308;2023-11-21T00:06:02;12.20;;;5.20;;
27839;SDS011;15207;42.182;24.308;2023-11-21T00:08:28;13.10;;;5.90;;
27839;SDS011;15207;42.182;24.308;2023-11-21T00:10:53;9.75;;;5.25;;
27839;SDS011;15207;42.182;24.308;2023-11-21T00:13:20;10.80;;;5.97;;
27839;SDS011;15207;42.182;24.308;2023-11-21T00:15:45;11.90;;;6.10;;
27839;SDS011;15207;42.182;24.308;2023-11-21T00:18:10;11.00;;;5.50;;
27839;SDS011;15207;42.182;24.308;2023-11-21T00:20:36;8.30;;;5.05;;
27839;SDS011;15207;42.182;24.308;2023-11-21T00:25:27;10.80;;;6.10;;
27839;SDS011;15207;42.182;24.308;2023-11-21T00:27:52;12.25;;;5.50;;
27839;SDS011;15207;42.182;24.308;2023-11-21T00:30:19;11.90;;;6.30;;
27839;SDS011;15207;42.182;24.308;2023-11-21T00:32:45;9.90;;;6.00;;
27839;SDS011;15207;42.182;24.308;2023-11-21T00:35:10;10.40;;;5.70;;
27839;SDS011;15207;42.182;24.308;2023-11-21T00:40:01;13.30;;;5.75;;
27839;SDS011;15207;42.182;24.308;2023-11-21T00:42:30;12.00;;;5.80;;
27839;SDS011;15207;42.182;24.308;2023-11-21T00:44:58;11.80;;;6.20;;
27839;SDS011;15207;42.182;24.308;2023-11-21T00:49:48;12.05;;;6.30;;
27839;SDS011;15207;42.182;24.308;2023-11-21T00:52:14;11.20;;;5.70;;
27839;SDS011;15207;42.182;24.308;2023-11-21T00:54:39;10.10;;;5.70;;
27839;SDS011;15207;42.182;24.308;2023-11-21T00:57:05;9.50;;;6.00;;
27839;SDS011;15207;42.182;24.308;2023-11-21T00:59:30;10.25;;;5.55;;
27839;SDS011;15207;42.182;24.308;2023-11-21T01:01:56;11.70;;;5.80;;
27839;SDS011;15207;42.182;24.308;2023-11-21T01:04:21;9.55;;;6.10;;
27839;SDS011;15207;42.182;24.308;2023-11-21T01:06:47;12.13;;;6.10;;
27839;SDS011;15207;42.182;24.308;2023-11-21T01:09:12;10.50;;;5.70;;
27839;SDS011;15207;42.182;24.308;2023-11-21T01:11:38;10.40;;;5.85;;
27839;SDS011;15207;42.182;24.308;2023-11-21T01:14:04;11.68;;;5.93;;
27839;SDS011;15207;42.182;24.308;2023-11-21T01:16:30;8.85;;;6.00;;
27839;SDS011;15207;42.182;24.308;2023-11-21T01:18:57;10.20;;;6.15;;
27839;SDS011;15207;42.182;24.308;2023-11-21T01:21:24;12.80;;;6.45;;
27839;SDS011;15207;42.182;24.308;2023-11-21T01:23:49;9.45;;;5.90;;
27839;SDS011;15207;42.182;24.308;2023-11-21T01:26:15;18.05;;;10.20;;
27839;SDS011;15207;42.182;24.308;2023-11-21T01:28:40;18.00;;;9.30;;
27839;SDS011;15207;42.182;24.308;2023-11-21T01:31:06;15.50;;;7.90;;
27839;SDS011;15207;42.182;24.308;2023-11-21T01:33:32;11.40;;;6.60;;
27839;SDS011;15207;42.182;24.308;2023-11-21T01:35:58;13.35;;;6.70;;
27839;SDS011;15207;42.182;24.308;2023-11-21T01:38:24;13.90;;;7.30;;
27839;SDS011;15207;42.182;24.308;2023-11-21T01:40:50;15.90;;;7.65;;
27839;SDS011;15207;42.182;24.308;2023-11-21T01:43:15;13.30;;;7.00;;
27839;SDS011;15207;42.182;24.308;2023-11-21T01:45:41;13.30;;;7.20;;
27839;SDS011;15207;42.182;24.308;2023-11-21T01:48:07;15.00;;;6.60;;
27839;SDS011;15207;42.182;24.308;2023-11-21T01:50:33;10.50;;;6.60;;
27839;SDS011;15207;42.182;24.308;2023-11-21T01:52:59;10.90;;;6.10;;
27839;SDS011;15207;42.182;24.308;2023-11-21T01:55:25;9.70;;;5.80;;
27839;SDS011;15207;42.182;24.308;2023-11-21T01:57:52;10.60;;;6.20;;
27839;SDS011;15207;42.182;24.308;2023-11-21T02:00:18;14.55;;;6.70;;
27839;SDS011;15207;42.182;24.308;2023-11-21T02:02:45;15.20;;;7.00;;
27839;SDS011;15207;42.182;24.308;2023-11-21T02:05:11;15.50;;;8.40;;
27839;SDS011;15207;42.182;24.308;2023-11-21T02:07:39;19.80;;;8.00;;
27839;SDS011;15207;42.182;24.308;2023-11-21T02:10:05;16.50;;;8.30;;
27839;SDS011;15207;42.182;24.308;2023-11-21T02:12:31;14.65;;;7.30;;
27839;SDS011;15207;42.182;24.308;2023-11-21T02:14:57;17.97;;;8.30;;
27839;SDS011;15207;42.182;24.308;2023-11-21T02:17:22;13.10;;;7.50;;
27839;SDS011;15207;42.182;24.308;2023-11-21T02:19:48;12.60;;;7.40;;
27839;SDS011;15207;42.182;24.308;2023-11-21T02:22:16;12.50;;;7.10;;
27839;SDS011;15207;42.182;24.308;2023-11-21T02:24:45;16.70;;;7.50;;
27839;SDS011;15207;42.182;24.308;2023-11-21T02:27:13;12.40;;;7.50;;
27839;SDS011;15207;42.182;24.308;2023-11-21T02:29:39;19.50;;;8.20;;
27839;SDS011;15207;42.182;24.308;2023-11-21T02:32:05;16.30;;;8.20;;
27839;SDS011;15207;42.182;24.308;2023-11-21T02:34:31;13.50;;;8.00;;
27839;SDS011;15207;42.182;24.308;2023-11-21T02:36:56;14.30;;;7.85;;
27839;SDS011;15207;42.182;24.308;2023-11-21T02:39:22;15.20;;;7.10;;
27839;SDS011;15207;42.182;24.308;2023-11-21T02:41:48;12.40;;;6.80;;
27839;SDS011;15207;42.182;24.308;2023-11-21T02:44:14;12.88;;;7.70;;
27839;SDS011;15207;42.182;24.308;2023-11-21T02:46:39;12.20;;;6.70;;
27839;SDS011;15207;42.182;24.308;2023-11-21T02:49:05;11.45;;;5.90;;
27839;SDS011;15207;42.182;24.308;2023-11-21T02:51:35;14.70;;;7.80;;
27839;SDS011;15207;42.182;24.308;2023-11-21T02:54:03;11.50;;;6.50;;
27839;SDS011;15207;42.182;24.308;2023-11-21T02:56:31;8.80;;;5.70;;
27839;SDS011;15207;42.182;24.308;2023-11-21T02:58:59;12.45;;;4.95;;
27839;SDS011;15207;42.182;24.308;2023-11-21T03:01:25;8.15;;;4.70;;
27839;SDS011;15207;42.182;24.308;2023-11-21T03:03:51;9.20;;;4.70;;
27839;SDS011;15207;42.182;24.308;2023-11-21T03:06:17;7.60;;;4.60;;
27839;SDS011;15207;42.182;24.308;2023-11-21T03:08:43;8.00;;;4.25;;
27839;SDS011;15207;42.182;24.308;2023-11-21T03:11:09;6.85;;;4.05;;
27839;SDS011;15207;42.182;24.308;2023-11-21T03:15:59;9.10;;;4.80;;
27839;SDS011;15207;42.182;24.308;2023-11-21T03:18:25;9.25;;;5.10;;
27839;SDS011;15207;42.182;24.308;2023-11-21T03:20:52;6.83;;;4.33;;
27839;SDS011;15207;42.182;24.308;2023-11-21T03:23:18;6.35;;;3.60;;
27839;SDS011;15207;42.182;24.308;2023-11-21T03:25:43;11.20;;;4.10;;
27839;SDS011;15207;42.182;24.308;2023-11-21T03:28:09;6.60;;;4.20;;
27839;SDS011;15207;42.182;24.308;2023-11-21T03:30:34;7.60;;;3.75;;
27839;SDS011;15207;42.182;24.308;2023-11-21T03:33:00;6.20;;;4.10;;
27839;SDS011;15207;42.182;24.308;2023-11-21T03:37:51;5.70;;;3.25;;
27839;SDS011;15207;42.182;24.308;2023-11-21T03:40:16;7.05;;;3.85;;
27839;SDS011;15207;42.182;24.308;2023-11-21T03:42:42;6.30;;;3.50;;
27839;SDS011;15207;42.182;24.308;2023-11-21T03:47:33;10.97;;;4.47;;
27839;SDS011;15207;42.182;24.308;2023-11-21T03:49:59;10.25;;;4.95;;
27839;SDS011;15207;42.182;24.308;2023-11-21T03:52:24;9.30;;;5.15;;
27839;SDS011;15207;42.182;24.308;2023-11-21T03:54:50;10.90;;;5.10;;
27839;SDS011;15207;42.182;24.308;2023-11-21T03:57:15;14.65;;;4.85;;
27839;SDS011;15207;42.182;24.308;2023-11-21T03:59:41;9.20;;;5.22;;
27839;SDS011;15207;42.182;24.308;2023-11-21T04:02:08;8.93;;;5.10;;
27839;SDS011;15207;42.182;24.308;2023-11-21T04:04:34;9.50;;;6.10;;
27839;SDS011;15207;42.182;24.308;2023-11-21T04:07:00;14.70;;;8.00;;
27839;SDS011;15207;42.182;24.308;2023-11-21T04:09:25;18.80;;;8.10;;
27839;SDS011;15207;42.182;24.308;2023-11-21T04:11:51;23.60;;;8.90;;
27839;SDS011;15207;42.182;24.308;2023-11-21T04:14:17;20.00;;;7.40;;
27839;SDS011;15207;42.182;24.308;2023-11-21T04:19:08;18.92;;;6.57;;
27839;SDS011;15207;42.182;24.308;2023-11-21T04:21:39;11.20;;;5.60;;
27839;SDS011;15207;42.182;24.308;2023-11-21T04:24:05;24.80;;;5.90;;
27839;SDS011;15207;42.182;24.308;2023-11-21T04:26:31;13.80;;;7.00;;
27839;SDS011;15207;42.182;24.308;2023-11-21T04:28:56;21.90;;;8.70;;
27839;SDS011;15207;42.182;24.308;2023-11-21T04:33:47;33.95;;;8.90;;
27839;SDS011;15207;42.182;24.308;2023-11-21T04:36:13;18.45;;;8.10;;
27839;SDS011;15207;42.182;24.308;2023-11-21T04:38:38;19.90;;;8.60;;
27839;SDS011;15207;42.182;24.308;2023-11-21T04:41:03;18.83;;;7.70;;
27839;SDS011;15207;42.182;24.308;2023-11-21T04:43:29;20.40;;;8.70;;
27839;SDS011;15207;42.182;24.308;2023-11-21T04:45:54;19.10;;;8.50;;
27839;SDS011;15207;42.182;24.308;2023-11-21T04:48:20;25.30;;;10.70;;
27839;SDS011;15207;42.182;24.308;2023-11-21T04:50:45;24.70;;;9.90;;
27839;SDS011;15207;42.182;24.308;2023-11-21T04:53:11;30.30;;;13.53;;
27839;SDS011;15207;42.182;24.308;2023-11-21T04:55:39;37.70;;;14.00;;
27839;SDS011;15207;42.182;24.308;2023-11-21T05:00:30;38.60;;;17.40;;
27839;SDS011;15207;42.182;24.308;2023-11-21T05:02:56;32.15;;;14.95;;
27839;SDS011;15207;42.182;24.308;2023-11-21T05:05:21;25.60;;;10.70;;
27839;SDS011;15207;42.182;24.308;2023-11-21T05:07:47;22.30;;;10.90;;
27839;SDS011;15207;42.182;24.308;2023-11-21T05:10:14;27.40;;;11.90;;
27839;SDS011;15207;42.182;24.308;2023-11-21T05:15:05;30.10;;;11.70;;
27839;SDS011;15207;42.182;24.308;2023-11-21T05:17:38;27.70;;;11.30;;
27839;SDS011;15207;42.182;24.308;2023-11-21T05:20:10;28.50;;;12.85;;
27839;SDS011;15207;42.182;24.308;2023-11-21T05:22:38;43.10;;;14.30;;
27839;SDS011;15207;42.182;24.308;2023-11-21T05:25:04;38.70;;;14.10;;
27839;SDS011;15207;42.182;24.308;2023-11-21T05:27:32;32.45;;;14.00;;
27839;SDS011;15207;42.182;24.308;2023-11-21T05:29:58;39.70;;;15.10;;
27839;SDS011;15207;42.182;24.308;2023-11-21T05:32:24;30.60;;;11.80;;
27839;SDS011;15207;42.182;24.308;2023-11-21T05:34:49;26.50;;;11.90;;
27839;SDS011;15207;42.182;24.308;2023-11-21T05:37:15;36.25;;;13.00;;
27839;SDS011;15207;42.182;24.308;2023-11-21T05:39:40;27.15;;;13.30;;
27839;SDS011;15207;42.182;24.308;2023-11-21T05:42:06;32.80;;;13.20;;
27839;SDS011;15207;42.182;24.308;2023-11-21T05:44:31;33.20;;;14.00;;
27839;SDS011;15207;42.182;24.308;2023-11-21T05:46:57;49.25;;;25.00;;
27839;SDS011;15207;42.182;24.308;2023-11-21T05:51:51;74.30;;;40.05;;
27839;SDS011;15207;42.182;24.308;2023-11-21T05:54:19;73.60;;;36.80;;
27839;SDS011;15207;42.182;24.308;2023-11-21T05:56:44;77.73;;;40.57;;
27839;SDS011;15207;42.182;24.308;2023-11-21T05:59:10;76.30;;;34.20;;
27839;SDS011;15207;42.182;24.308;2023-11-21T06:08:54;57.35;;;28.45;;
27839;SDS011;15207;42.182;24.308;2023-11-21T06:11:20;50.00;;;23.50;;
27839;SDS011;15207;42.182;24.308;2023-11-21T06:16:11;45.30;;;19.60;;
27839;SDS011;15207;42.182;24.308;2023-11-21T06:18:39;40.20;;;16.25;;
27839;SDS011;15207;42.182;24.308;2023-11-21T06:21:05;37.05;;;14.70;;
27839;SDS011;15207;42.182;24.308;2023-11-21T06:23:31;46.60;;;15.30;;
27839;SDS011;15207;42.182;24.308;2023-11-21T06:25:56;155.80;;;22.40;;
27839;SDS011;15207;42.182;24.308;2023-11-21T06:28:22;51.25;;;18.55;;
27839;SDS011;15207;42.182;24.308;2023-11-21T06:30:47;29.30;;;14.50;;
27839;SDS011;15207;42.182;24.308;2023-11-21T06:33:14;24.35;;;11.95;;
27839;SDS011;15207;42.182;24.308;2023-11-21T06:35:39;28.00;;;14.50;;
27839;SDS011;15207;42.182;24.308;2023-11-21T06:38:05;43.20;;;21.10;;
27839;SDS011;15207;42.182;24.308;2023-11-21T06:40:30;48.50;;;15.60;;
27839;SDS011;15207;42.182;24.308;2023-11-21T06:42:56;28.90;;;13.65;;
27839;SDS011;15207;42.182;24.308;2023-11-21T06:45:23;28.20;;;12.40;;
27839;SDS011;15207;42.182;24.308;2023-11-21T06:47:49;24.00;;;13.80;;
27839;SDS011;15207;42.182;24.308;2023-11-21T06:50:14;22.00;;;11.40;;
27839;SDS011;15207;42.182;24.308;2023-11-21T06:52:40;25.95;;;9.95;;
27839;SDS011;15207;42.182;24.308;2023-11-21T06:57:33;20.10;;;10.90;;
27839;SDS011;15207;42.182;24.308;2023-11-21T06:59:58;25.65;;;10.50;;
27839;SDS011;15207;42.182;24.308;2023-11-21T07:02:24;30.85;;;12.85;;
27839;SDS011;15207;42.182;24.308;2023-11-21T07:04:50;22.10;;;12.30;;
27839;SDS011;15207;42.182;24.308;2023-11-21T07:07:15;35.20;;;17.30;;
27839;SDS011;15207;42.182;24.308;2023-11-21T07:14:35;26.83;;;13.23;;
27839;SDS011;15207;42.182;24.308;2023-11-21T07:17:00;18.00;;;10.35;;
27839;SDS011;15207;42.182;24.308;2023-11-21T07:19:26;21.05;;;11.00;;
27839;SDS011;15207;42.182;24.308;2023-11-21T07:21:51;24.95;;;10.15;;
27839;SDS011;15207;42.182;24.308;2023-11-21T07:24:17;18.80;;;10.00;;
27839;SDS011;15207;42.182;24.308;2023-11-21T07:26:43;28.80;;;11.20;;
27839;SDS011;15207;42.182;24.308;2023-11-21T07:29:08;44.20;;;12.20;;
27839;SDS011;15207;42.182;24.308;2023-11-21T07:31:34;25.40;;;11.40;;
27839;SDS011;15207;42.182;24.308;2023-11-21T07:33:59;17.80;;;9.80;;
27839;SDS011;15207;42.182;24.308;2023-11-21T07:36:25;18.20;;;10.70;;
27839;SDS011;15207;42.182;24.308;2023-11-21T07:38:51;20.27;;;9.90;;
27839;SDS011;15207;42.182;24.308;2023-11-21T07:41:17;23.50;;;12.10;;
27839;SDS011;15207;42.182;24.308;2023-11-21T07:43:43;29.10;;;15.40;;
27839;SDS011;15207;42.182;24.308;2023-11-21T07:46:09;27.15;;;14.90;;
27839;SDS011;15207;42.182;24.308;2023-11-21T07:48:37;37.30;;;17.90;;
27839;SDS011;15207;42.182;24.308;2023-11-21T07:51:03;42.05;;;17.75;;
27839;SDS011;15207;42.182;24.308;2023-11-21T07:53:29;23.60;;;12.90;;
27839;SDS011;15207;42.182;24.308;2023-11-21T07:55:58;22.85;;;13.30;;
27839;SDS011;15207;42.182;24.308;2023-11-21T07:58:28;18.90;;;11.20;;
27839;SDS011;15207;42.182;24.308;2023-11-21T08:00:53;16.60;;;9.80;;
27839;SDS011;15207;42.182;24.308;2023-11-21T08:03:19;13.30;;;8.60;;
27839;SDS011;15207;42.182;24.308;2023-11-21T08:05:44;15.45;;;9.05;;
27839;SDS011;15207;42.182;24.308;2023-11-21T08:13:03;16.95;;;8.20;;
27839;SDS011;15207;42.182;24.308;2023-11-21T08:15:31;39.05;;;18.80;;
27839;SDS011;15207;42.182;24.308;2023-11-21T08:17:57;30.20;;;17.90;;
27839;SDS011;15207;42.182;24.308;2023-11-21T08:20:24;29.70;;;14.20;;
27839;SDS011;15207;42.182;24.308;2023-11-21T08:22:50;22.90;;;9.90;;
27839;SDS011;15207;42.182;24.308;2023-11-21T08:25:17;28.50;;;14.10;;
27839;SDS011;15207;42.182;24.308;2023-11-21T08:27:44;26.40;;;14.10;;
27839;SDS011;15207;42.182;24.308;2023-11-21T08:35:02;18.65;;;11.10;;
27839;SDS011;15207;42.182;24.308;2023-11-21T08:37:37;15.60;;;9.10;;
27839;SDS011;15207;42.182;24.308;2023-11-21T08:40:04;15.45;;;8.45;;
27839;SDS011;15207;42.182;24.308;2023-11-21T08:42:34;13.30;;;8.20;;
27839;SDS011;15207;42.182;24.308;2023-11-21T08:45:00;17.90;;;8.80;;
27839;SDS011;15207;42.182;24.308;2023-11-21T08:47:25;12.90;;;7.85;;
27839;SDS011;15207;42.182;24.308;2023-11-21T08:52:18;12.83;;;9.00;;
27839;SDS011;15207;42.182;24.308;2023-11-21T08:54:45;16.00;;;8.90;;
27839;SDS011;15207;42.182;24.308;2023-11-21T08:57:11;17.90;;;9.70;;
27839;SDS011;15207;42.182;24.308;2023-11-21T08:59:36;12.00;;;7.20;;
27839;SDS011;15207;42.182;24.308;2023-11-21T09:02:02;13.80;;;8.00;;
27839;SDS011;15207;42.182;24.308;2023-11-21T09:04:27;17.50;;;8.70;;
27839;SDS011;15207;42.182;24.308;2023-11-21T09:06:53;12.10;;;7.65;;
27839;SDS011;15207;42.182;24.308;2023-11-21T09:09:18;14.50;;;7.70;;
27839;SDS011;15207;42.182;24.308;2023-11-21T09:14:11;10.10;;;6.05;;
27839;SDS011;15207;42.182;24.308;2023-11-21T09:16:38;11.10;;;7.00;;
27839;SDS011;15207;42.182;24.308;2023-11-21T09:19:03;38.10;;;9.50;;
27839;SDS011;15207;42.182;24.308;2023-11-21T09:21:30;22.40;;;9.10;;
27839;SDS011;15207;42.182;24.308;2023-11-21T09:23:56;22.00;;;8.30;;
27839;SDS011;15207;42.182;24.308;2023-11-21T09:26:21;24.05;;;11.30;;
27839;SDS011;15207;42.182;24.308;2023-11-21T09:28:46;19.70;;;8.35;;
27839;SDS011;15207;42.182;24.308;2023-11-21T09:31:13;21.50;;;10.10;;
27839;SDS011;15207;42.182;24.308;2023-11-21T09:33:42;18.20;;;7.20;;
27839;SDS011;15207;42.182;24.308;2023-11-21T09:36:12;14.70;;;8.70;;
27839;SDS011;15207;42.182;24.308;2023-11-21T09:38:40;10.65;;;7.10;;
27839;SDS011;15207;42.182;24.308;2023-11-21T09:41:11;19.00;;;7.40;;
27839;SDS011;15207;42.182;24.308;2023-11-21T09:43:46;18.50;;;8.40;;
27839;SDS011;15207;42.182;24.308;2023-11-21T09:46:12;14.50;;;5.10;;
27839;SDS011;15207;42.182;24.308;2023-11-21T09:48:44;8.95;;;3.70;;
27839;SDS011;15207;42.182;24.308;2023-11-21T09:51:12;8.95;;;3.10;;
27839;SDS011;15207;42.182;24.308;2023-11-21T09:53:38;4.55;;;3.10;;
27839;SDS011;15207;42.182;24.308;2023-11-21T09:56:06;3.70;;;2.47;;
27839;SDS011;15207;42.182;24.308;2023-11-21T09:58:34;4.80;;;4.10;;
27839;SDS011;15207;42.182;24.308;2023-11-21T10:01:00;6.80;;;4.30;;
27839;SDS011;15207;42.182;24.308;2023-11-21T10:05:53;6.83;;;3.60;;
27839;SDS011;15207;42.182;24.308;2023-11-21T10:08:21;9.60;;;6.50;;
27839;SDS011;15207;42.182;24.308;2023-11-21T10:13:16;7.90;;;4.30;;
27839;SDS011;15207;42.182;24.308;2023-11-21T10:15:44;14.40;;;5.00;;
27839;SDS011;15207;42.182;24.308;2023-11-21T10:18:14;6.85;;;4.50;;
27839;SDS011;15207;42.182;24.308;2023-11-21T10:23:06;5.83;;;4.30;;
27839;SDS011;15207;42.182;24.308;2023-11-21T10:28:02;8.60;;;4.80;;
27839;SDS011;15207;42.182;24.308;2023-11-21T10:30:34;6.20;;;4.00;;
27839;SDS011;15207;42.182;24.308;2023-11-21T10:33:04;9.10;;;4.40;;
27839;SDS011;15207;42.182;24.308;2023-11-21T10:35:43;7.25;;;4.45;;
27839;SDS011;15207;42.182;24.308;2023-11-21T10:40:41;11.45;;;4.15;;
27839;SDS011;15207;42.182;24.308;2023-11-21T10:43:07;7.40;;;4.55;;
27839;SDS011;15207;42.182;24.308;2023-11-21T10:45:34;5.55;;;3.90;;
27839;SDS011;15207;42.182;24.308;2023-11-21T10:48:04;8.70;;;4.60;;
27839;SDS011;15207;42.182;24.308;2023-11-21T10:50:32;11.55;;;5.95;;
27839;SDS011;15207;42.182;24.308;2023-11-21T10:53:00;8.45;;;4.85;;
27839;SDS011;15207;42.182;24.308;2023-11-21T10:55:30;6.60;;;4.40;;
27839;SDS011;15207;42.182;24.308;2023-11-21T10:57:58;8.85;;;4.10;;
27839;SDS011;15207;42.182;24.308;2023-11-21T11:00:24;8.70;;;4.90;;
27839;SDS011;15207;42.182;24.308;2023-11-21T11:02:52;12.75;;;4.50;;
27839;SDS011;15207;42.182;24.308;2023-11-21T11:05:21;9.23;;;4.27;;
27839;SDS011;15207;42.182;24.308;2023-11-21T11:10:22;5.60;;;3.40;;
27839;SDS011;15207;42.182;24.308;2023-11-21T11:12:51;4.63;;;3.03;;
27839;SDS011;15207;42.182;24.308;2023-11-21T11:15:17;6.50;;;3.40;;
27839;SDS011;15207;42.182;24.308;2023-11-21T11:17:45;10.60;;;4.00;;
27839;SDS011;15207;42.182;24.308;2023-11-21T11:20:11;6.35;;;4.10;;
27839;SDS011;15207;42.182;24.308;2023-11-21T11:35:57;10.30;;;4.40;;
27839;SDS011;15207;42.182;24.308;2023-11-21T11:38:26;14.20;;;5.15;;
27839;SDS011;15207;42.182;24.308;2023-11-21T11:40:56;7.65;;;4.55;;
27839;SDS011;15207;42.182;24.308;2023-11-21T11:43:25;7.80;;;4.90;;
27839;SDS011;15207;42.182;24.308;2023-11-21T11:45:51;8.90;;;5.00;;
27839;SDS011;15207;42.182;24.308;2023-11-21T11:48:21;14.00;;;6.20;;
27839;SDS011;15207;42.182;24.308;2023-11-21T11:53:32;24.40;;;7.00;;
27839;SDS011;15207;42.182;24.308;2023-11-21T11:59:06;15.80;;;6.40;;
27839;SDS011;15207;42.182;24.308;2023-11-21T12:01:34;14.10;;;5.70;;
27839;SDS011;15207;42.182;24.308;2023-11-21T12:06:45;54.75;;;8.00;;
27839;SDS011;15207;42.182;24.308;2023-11-21T12:09:17;23.85;;;6.05;;
27839;SDS011;15207;42.182;24.308;2023-11-21T12:11:44;11.80;;;5.45;;
27839;SDS011;15207;42.182;24.308;2023-11-21T12:14:11;19.10;;;5.90;;
27839;SDS011;15207;42.182;24.308;2023-11-21T12:16:38;12.60;;;5.40;;
27839;SDS011;15207;42.182;24.308;2023-11-21T12:23:55;8.73;;;4.53;;
27839;SDS011;15207;42.182;24.308;2023-11-21T12:26:23;15.10;;;5.20;;
27839;SDS011;15207;42.182;24.308;2023-11-21T12:28:52;19.40;;;5.70;;
27839;SDS011;15207;42.182;24.308;2023-11-21T12:31:21;48.33;;;6.50;;
27839;SDS011;15207;42.182;24.308;2023-11-21T12:33:47;31.90;;;5.70;;
27839;SDS011;15207;42.182;24.308;2023-11-21T12:36:13;20.90;;;5.90;;
27839;SDS011;15207;42.182;24.308;2023-11-21T12:38:39;15.15;;;4.95;;
27839;SDS011;15207;42.182;24.308;2023-11-21T12:41:05;15.65;;;5.95;;
27839;SDS011;15207;42.182;24.308;2023-11-21T12:43:31;13.70;;;6.10;;
27839;SDS011;15207;42.182;24.308;2023-11-21T12:48:42;13.90;;;5.40;;
27839;SDS011;15207;42.182;24.308;2023-11-21T12:51:10;10.60;;;5.77;;
27839;SDS011;15207;42.182;24.308;2023-11-21T12:53:37;10.90;;;5.60;;
27839;SDS011;15207;42.182;24.308;2023-11-21T12:56:10;9.60;;;5.40;;
27839;SDS011;15207;42.182;24.308;2023-11-21T12:58:36;11.50;;;4.95;;
27839;SDS011;15207;42.182;24.308;2023-11-21T13:03:30;13.50;;;5.35;;
27839;SDS011;15207;42.182;24.308;2023-11-21T13:08:23;24.05;;;8.20;;
27839;SDS011;15207;42.182;24.308;2023-11-21T13:10:51;18.90;;;7.60;;
27839;SDS011;15207;42.182;24.308;2023-11-21T13:15:49;12.00;;;6.50;;
27839;SDS011;15207;42.182;24.308;2023-11-21T13:18:16;16.90;;;6.50;;
27839;SDS011;15207;42.182;24.308;2023-11-21T13:20:42;21.90;;;7.00;;
27839;SDS011;15207;42.182;24.308;2023-11-21T13:23:08;10.60;;;5.50;;
27839;SDS011;15207;42.182;24.308;2023-11-21T13:25:37;12.30;;;5.70;;
27839;SDS011;15207;42.182;24.308;2023-11-21T13:28:05;15.83;;;6.30;;
27839;SDS011;15207;42.182;24.308;2023-11-21T13:30:32;11.20;;;5.30;;
27839;SDS011;15207;42.182;24.308;2023-11-21T13:33:00;10.15;;;5.90;;
27839;SDS011;15207;42.182;24.308;2023-11-21T13:35:35;10.50;;;6.60;;
27839;SDS011;15207;42.182;24.308;2023-11-21T13:38:09;21.60;;;8.30;;
27839;SDS011;15207;42.182;24.308;2023-11-21T13:40:36;14.30;;;7.30;;
27839;SDS011;15207;42.182;24.308;2023-11-21T13:43:10;14.00;;;6.60;;
27839;SDS011;15207;42.182;24.308;2023-11-21T13:45:38;12.60;;;6.70;;
27839;SDS011;15207;42.182;24.308;2023-11-21T13:48:07;16.00;;;6.70;;
27839;SDS011;15207;42.182;24.308;2023-11-21T13:50:37;14.27;;;6.70;;
27839;SDS011;15207;42.182;24.308;2023-11-21T13:53:03;13.95;;;5.90;;
27839;SDS011;15207;42.182;24.308;2023-11-21T13:55:51;10.50;;;5.80;;
27839;SDS011;15207;42.182;24.308;2023-11-21T13:58:22;12.05;;;7.00;;
27839;SDS011;15207;42.182;24.308;2023-11-21T14:00:51;20.10;;;8.10;;
27839;SDS011;15207;42.182;24.308;2023-11-21T14:03:30;18.10;;;9.90;;
27839;SDS011;15207;42.182;24.308;2023-11-21T14:06:03;18.10;;;8.97;;
27839;SDS011;15207;42.182;24.308;2023-11-21T14:08:33;15.60;;;8.43;;
27839;SDS011;15207;42.182;24.308;2023-11-21T14:10:59;27.10;;;9.00;;
27839;SDS011;15207;42.182;24.308;2023-11-21T14:13:25;18.90;;;9.10;;
27839;SDS011;15207;42.182;24.308;2023-11-21T14:15:52;15.50;;;6.80;;
27839;SDS011;15207;42.182;24.308;2023-11-21T14:18:24;13.50;;;7.80;;
27839;SDS011;15207;42.182;24.308;2023-11-21T14:21:06;17.45;;;8.90;;
27839;SDS011;15207;42.182;24.308;2023-11-21T14:23:33;17.90;;;8.80;;
27839;SDS011;15207;42.182;24.308;2023-11-21T14:28:26;14.95;;;7.28;;
27839;SDS011;15207;42.182;24.308;2023-11-21T14:30:51;16.60;;;8.60;;
27839;SDS011;15207;42.182;24.308;2023-11-21T14:33:17;26.40;;;10.20;;
27839;SDS011;15207;42.182;24.308;2023-11-21T14:35:42;30.50;;;13.10;;
27839;SDS011;15207;42.182;24.308;2023-11-21T14:38:08;55.80;;;20.60;;
27839;SDS011;15207;42.182;24.308;2023-11-21T14:40:35;59.70;;;24.70;;
27839;SDS011;15207;42.182;24.308;2023-11-21T14:43:01;58.40;;;24.00;;
27839;SDS011;15207;42.182;24.308;2023-11-21T14:45:30;55.50;;;23.40;;
27839;SDS011;15207;42.182;24.308;2023-11-21T14:47:56;60.90;;;24.95;;
27839;SDS011;15207;42.182;24.308;2023-11-21T14:50:34;69.25;;;30.30;;
27839;SDS011;15207;42.182;24.308;2023-11-21T14:53:06;71.20;;;30.60;;
27839;SDS011;15207;42.182;24.308;2023-11-21T14:55:33;73.10;;;31.60;;
27839;SDS011;15207;42.182;24.308;2023-11-21T14:58:18;96.30;;;38.80;;
27839;SDS011;15207;42.182;24.308;2023-11-21T15:00:54;96.05;;;37.60;;
27839;SDS011;15207;42.182;24.308;2023-11-21T15:03:23;97.50;;;39.20;;
27839;SDS011;15207;42.182;24.308;2023-11-21T15:06:08;88.90;;;36.10;;
27839;SDS011;15207;42.182;24.308;2023-11-21T15:09:02;46.00;;;21.75;;
27839;SDS011;15207;42.182;24.308;2023-11-21T15:11:34;37.10;;;18.80;;
27839;SDS011;15207;42.182;24.308;2023-11-21T15:14:02;34.70;;;17.30;;
27839;SDS011;15207;42.182;24.308;2023-11-21T15:16:34;39.50;;;19.30;;
27839;SDS011;15207;42.182;24.308;2023-11-21T15:19:15;40.85;;;20.25;;
27839;SDS011;15207;42.182;24.308;2023-11-21T15:21:43;43.00;;;19.40;;
27839;SDS011;15207;42.182;24.308;2023-11-21T15:24:11;54.60;;;20.60;;
27839;SDS011;15207;42.182;24.308;2023-11-21T15:26:37;65.60;;;23.13;;
27839;SDS011;15207;42.182;24.308;2023-11-21T15:31:27;62.45;;;24.10;;
27839;SDS011;15207;42.182;24.308;2023-11-21T15:36:20;48.00;;;21.30;;
27839;SDS011;15207;42.182;24.308;2023-11-21T15:38:46;49.40;;;21.80;;
27839;SDS011;15207;42.182;24.308;2023-11-21T15:41:11;56.20;;;22.20;;
27839;SDS011;15207;42.182;24.308;2023-11-21T15:46:02;49.30;;;19.30;;
27839;SDS011;15207;42.182;24.308;2023-11-21T15:48:32;39.95;;;19.30;;
27839;SDS011;15207;42.182;24.308;2023-11-21T15:50:58;46.50;;;19.10;;
27839;SDS011;15207;42.182;24.308;2023-11-21T15:55:49;41.85;;;18.05;;
27839;SDS011;15207;42.182;24.308;2023-11-21T16:00:41;33.73;;;14.57;;
27839;SDS011;15207;42.182;24.308;2023-11-21T16:03:07;30.20;;;14.23;;
27839;SDS011;15207;42.182;24.308;2023-11-21T16:08:01;74.97;;;30.80;;
27839;SDS011;15207;42.182;24.308;2023-11-21T16:10:26;83.30;;;40.70;;
27839;SDS011;15207;42.182;24.308;2023-11-21T16:12:52;96.50;;;45.85;;
27839;SDS011;15207;42.182;24.308;2023-11-21T16:15:17;105.65;;;44.90;;
27839;SDS011;15207;42.182;24.308;2023-11-21T16:17:43;82.65;;;30.80;;
27839;SDS011;15207;42.182;24.308;2023-11-21T16:20:08;53.40;;;24.10;;
27839;SDS011;15207;42.182;24.308;2023-11-21T16:22:37;60.80;;;24.45;;
27839;SDS011;15207;42.182;24.308;2023-11-21T16:25:03;69.60;;;25.85;;